Valle Di Nervion — IBPC — position and weather

sailwx.info

Track history (hours):
 
Tides and Currents Weather Stations Pressure Air Temp Water Temp Dewpoint Dewpoint Depression Visibility Wind Speed Wind Dir Waves Ship Positions

Valle Di Nervion

Last reported at 2017-Jun-23 00:08 UTC. Time now 2017-Jun-25 12:25 UTC.
Position N 37°33' W 001°02'.

Length 176 m; draft 7.5 m.

Type: Tanker. MMSI: 247109500.

Date/timePositionNaut miles runAvg speedWind from/ knotsBaromVisibWave heightAir tempDewpointWater temp
2017-Jun-23 00:08N 37°33' W 001°02'0 0.2
2017-Jun-22 23:49N 37°33' W 001°02'1 3.8
2017-Jun-22 23:30N 37°32' W 001°02'610.4
2017-Jun-22 22:58N 37°29' W 000°56'612.9
2017-Jun-22 22:30N 37°28' W 000°49'612.9
2017-Jun-22 22:00N 37°28' W 000°41'812.6
2017-Jun-22 21:24N 37°29' W 000°31'512.6
2017-Jun-22 21:00N 37°30' W 000°25'612.8
2017-Jun-22 20:30N 37°31' W 000°17'613.0
2017-Jun-22 20:00N 37°32' W 000°09'713.1
2017-Jun-22 19:30N 37°33' W 000°01'713.1
2017-Jun-22 18:59N 37°34' E 000°08'613.3
2017-Jun-22 18:30N 37°35' E 000°16'713.4
2017-Jun-22 18:00N 37°36' E 000°24'713.3
2017-Jun-22 17:30N 37°37' E 000°32'713.2
2017-Jun-22 17:00N 37°38' E 000°40'713.0
2017-Jun-22 16:30N 37°40' E 000°49'713.0
2017-Jun-22 16:00N 37°41' E 000°57'613.0
2017-Jun-22 15:30N 37°42' E 001°05'613.0
2017-Jun-22 15:00N 37°43' E 001°13'612.9
2017-Jun-22 14:30N 37°44' E 001°21'1312.7
2017-Jun-22 13:30N 37°46' E 001°37'612.7
2017-Jun-22 13:00N 37°47' E 001°45'712.8
2017-Jun-22 12:30N 37°48' E 001°53'712.9
2017-Jun-22 11:59N 37°49' E 002°01'613.1
2017-Jun-22 11:30N 37°50' E 002°09'813.1
2017-Jun-22 10:56N 37°52' E 002°18'613.3
2017-Jun-22 10:29N 37°52' E 002°26'613.3
2017-Jun-22 10:00N 37°53' E 002°34'713.2
2017-Jun-22 09:30N 37°54' E 002°42'713.1
2017-Jun-22 09:00N 37°56' E 002°50'713.0
2017-Jun-22 08:30N 37°57' E 002°59'613.1
2017-Jun-22 08:01N 37°57' E 003°07'713.1
2017-Jun-22 07:30N 37°58' E 003°15'612.3
2017-Jun-22 07:00N 37°59' E 003°23'510.1
2017-Jun-22 06:30N 37°59' E 003°29'3 5.7
2017-Jun-22 06:00N 37°60' E 003°33'0 0.3
2017-Jun-22 05:30N 37°60' E 003°33'0 0.3
2017-Jun-22 04:55N 37°60' E 003°33'0 0.4
2017-Jun-22 04:04N 37°60' E 003°33'0 0.4
2017-Jun-22 04:00N 37°60' E 003°33'0 0.5
2017-Jun-22 03:30N 37°60' E 003°34'0 0.5
2017-Jun-22 02:59N 37°60' E 003°34'0 0.6
2017-Jun-22 02:30N 37°60' E 003°34'0 0.6
2017-Jun-22 02:00N 37°60' E 003°35'0 0.6
2017-Jun-22 01:30N 37°60' E 003°35'0 0.6
2017-Jun-22 01:00N 37°60' E 003°36'0 0.7
2017-Jun-22 00:30N 37°59' E 003°36'0 0.7
2017-Jun-21 23:59N 37°59' E 003°36'0 0.8
2017-Jun-21 23:31N 37°59' E 003°37'0 0.8
2017-Jun-21 23:00N 37°59' E 003°37'1 0.9
2017-Jun-21 22:21N 37°59' E 003°38'0 0.9
2017-Jun-21 22:00N 37°59' E 003°39'0 0.9
2017-Jun-21 21:30N 37°59' E 003°39'0 0.9
2017-Jun-21 21:00N 37°59' E 003°40'0 0.9
2017-Jun-21 20:30N 37°60' E 003°40'0 0.9
2017-Jun-21 20:00N 37°60' E 003°41'0 0.9
2017-Jun-21 19:30N 37°60' E 003°41'0 0.9
2017-Jun-21 19:00N 38°00' E 003°42'0 0.8
2017-Jun-21 18:30N 38°00' E 003°42'0 0.8
2017-Jun-21 18:00N 38°01' E 003°43'0 0.8
2017-Jun-21 17:30N 38°01' E 003°43'0 0.8
2017-Jun-21 17:00N 38°01' E 003°43'0 0.8
2017-Jun-21 16:30N 38°01' E 003°44'0 0.8
2017-Jun-21 16:00N 38°02' E 003°44'0 0.7
2017-Jun-21 15:30N 38°02' E 003°45'0 0.7
2017-Jun-21 15:00N 38°02' E 003°45'1 0.9
2017-Jun-21 13:45N 38°03' E 003°46'2 7.8
2017-Jun-21 13:29N 38°03' E 003°48'713.3
2017-Jun-21 13:00N 38°04' E 003°57'713.4
2017-Jun-21 12:27N 38°06' E 004°06'2110.0
2017-Jun-21 10:21N 38°10' E 004°32'1 1.6
2017-Jun-21 09:53N 38°09' E 004°33'2 4.2
2017-Jun-21 09:29N 38°10' E 004°35'613.0
2017-Jun-21 09:00N 38°11' E 004°43'713.4
2017-Jun-21 08:28N 38°12' E 004°52'913.4
2017-Jun-21 07:48N 38°13' E 005°03'1713.2
2017-Jun-21 06:32N 38°15' E 005°24'013.5
2017-Jun-21 06:30N 38°15' E 005°25'1713.6
2017-Jun-21 05:17N 38°18' E 005°45'4213.8
2017-Jun-21 02:16N 38°25' E 006°38'5213.3
2017-Jun-20 22:21N 38°34' E 007°43'713.7
2017-Jun-20 21:52N 38°35' E 007°52'3713.6
2017-Jun-20 19:09N 38°42' E 008°38'313.1
2017-Jun-20 18:57N 38°43' E 008°41'613.1
2017-Jun-20 18:30N 38°43' E 008°49'1013.1
2017-Jun-20 17:43N 38°47' E 009°01'313.3
2017-Jun-20 17:30N 38°48' E 009°05'713.3
2017-Jun-20 17:00N 38°51' E 009°12'713.4
2017-Jun-20 16:30N 38°54' E 009°20'713.4
2017-Jun-20 16:00N 38°57' E 009°28'1613.0
2017-Jun-20 14:45N 39°04' E 009°47'7412.9
2017-Jun-20 08:58N 39°36' E 011°13'612.8
2017-Jun-20 08:30N 39°39' E 011°20'612.8
2017-Jun-20 08:00N 39°41' E 011°28'5112.8
2017-Jun-20 04:02N 40°03' E 012°28'612.8
2017-Jun-20 03:35N 40°06' E 012°34'8713.2
2017-Jun-19 20:58N 40°46' E 014°16'  
2017-Jun-17 16:32N 40°33' E 014°04'012.5
2017-Jun-17 16:30N 40°32' E 014°04'612.7
2017-Jun-17 16:00N 40°26' E 014°07'612.8
2017-Jun-17 15:30N 40°21' E 014°11'712.7
2017-Jun-17 14:58N 40°14' E 014°14'1613.0
2017-Jun-17 13:44N 39°60' E 014°23'312.9
2017-Jun-17 13:30N 39°57' E 014°25'7813.1
2017-Jun-17 07:31N 38°46' E 015°07'013.2
2017-Jun-17 07:29N 38°46' E 015°07'713.1
2017-Jun-17 06:59N 38°40' E 015°11'612.7
2017-Jun-17 06:30N 38°35' E 015°15'611.3
2017-Jun-17 06:00N 38°29' E 015°14'612.5
2017-Jun-17 05:30N 38°23' E 015°16'612.6
2017-Jun-17 05:00N 38°17' E 015°17'4 7.9
2017-Jun-17 04:30N 38°13' E 015°16'165 5.6
2017-Jun-15 23:10N 40°41' E 013°45'165 9.9
2017-Jun-15 06:30N 38°13' E 015°16'1 1.4
2017-Jun-15 06:01N 38°13' E 015°17'3 5.9
2017-Jun-15 05:30N 38°16' E 015°17'4 7.6
2017-Jun-15 05:01N 38°20' E 015°15'5 9.1
2017-Jun-15 04:31N 38°24' E 015°12'610.7
2017-Jun-15 04:00N 38°28' E 015°08'510.8
2017-Jun-15 03:30N 38°33' E 015°04'612.5
2017-Jun-15 03:00N 38°37' E 014°59'713.6
2017-Jun-15 02:29N 38°44' E 014°55'613.6
2017-Jun-15 02:01N 38°49' E 014°52'713.6
2017-Jun-15 01:29N 38°56' E 014°47'613.4
2017-Jun-15 01:00N 39°01' E 014°44'713.2
2017-Jun-15 00:31N 39°07' E 014°40'713.1
2017-Jun-15 00:00N 39°14' E 014°37'612.7
2017-Jun-14 23:30N 39°20' E 014°34'712.7
2017-Jun-14 22:58N 39°26' E 014°30'2213.2
2017-Jun-14 21:19N 39°45' E 014°18'1413.5
2017-Jun-14 20:16N 39°58' E 014°10'613.5
2017-Jun-14 19:49N 40°04' E 014°07'2713.6
2017-Jun-14 17:52N 40°28' E 013°53'513.5
2017-Jun-14 17:30N 40°32' E 013°50'713.6
2017-Jun-14 17:01N 40°38' E 013°46'713.5
2017-Jun-14 16:30N 40°45' E 013°43'713.4
2017-Jun-14 16:00N 40°51' E 013°42'713.3
2017-Jun-14 15:30N 40°58' E 013°42'713.5
2017-Jun-14 15:01N 41°05' E 013°41'1010.0
2017-Jun-14 14:00N 41°13' E 013°35'0 0.0
2017-Jun-13 04:55N 41°13' E 013°34'0 0.8
2017-Jun-13 04:26N 41°13' E 013°35'2 4.8
2017-Jun-13 04:00N 41°13' E 013°38'2 3.3
2017-Jun-13 03:30N 41°13' E 013°40'0 0.2
2017-Jun-13 03:00N 41°13' E 013°40'0 0.0
2017-Jun-13 00:38N 41°13' E 013°40'0 0.0
2017-Jun-13 00:14N 41°13' E 013°40'  
Track history (hours):
 
Tides and Currents Weather Stations Pressure Air Temp Water Temp Dewpoint Dewpoint Depression Visibility Wind Speed Wind Dir Waves Ship Positions

Valle Di Nervion

Last reported at 2017-Jun-23 00:08 UTC. Time now 2017-Jun-25 12:25 UTC.
Position N 37°33' W 001°02'.

Length 176 m; draft 7.5 m.

Type: Tanker. MMSI: 247109500.

Date/timePositionNaut miles runAvg speedWind from/ knotsBaromVisibWave heightAir tempDewpointWater temp
2017-Jun-23 00:08N 37°33' W 001°02'0 0.2
2017-Jun-22 23:49N 37°33' W 001°02'1 3.8
2017-Jun-22 23:30N 37°32' W 001°02'610.4
2017-Jun-22 22:58N 37°29' W 000°56'612.9
2017-Jun-22 22:30N 37°28' W 000°49'612.9
2017-Jun-22 22:00N 37°28' W 000°41'812.6
2017-Jun-22 21:24N 37°29' W 000°31'512.6
2017-Jun-22 21:00N 37°30' W 000°25'612.8
2017-Jun-22 20:30N 37°31' W 000°17'613.0
2017-Jun-22 20:00N 37°32' W 000°09'713.1
2017-Jun-22 19:30N 37°33' W 000°01'713.1
2017-Jun-22 18:59N 37°34' E 000°08'613.3
2017-Jun-22 18:30N 37°35' E 000°16'713.4
2017-Jun-22 18:00N 37°36' E 000°24'713.3
2017-Jun-22 17:30N 37°37' E 000°32'713.2
2017-Jun-22 17:00N 37°38' E 000°40'713.0
2017-Jun-22 16:30N 37°40' E 000°49'713.0
2017-Jun-22 16:00N 37°41' E 000°57'613.0
2017-Jun-22 15:30N 37°42' E 001°05'613.0
2017-Jun-22 15:00N 37°43' E 001°13'612.9
2017-Jun-22 14:30N 37°44' E 001°21'1312.7
2017-Jun-22 13:30N 37°46' E 001°37'612.7
2017-Jun-22 13:00N 37°47' E 001°45'712.8
2017-Jun-22 12:30N 37°48' E 001°53'712.9
2017-Jun-22 11:59N 37°49' E 002°01'613.1
2017-Jun-22 11:30N 37°50' E 002°09'813.1
2017-Jun-22 10:56N 37°52' E 002°18'613.3
2017-Jun-22 10:29N 37°52' E 002°26'613.3
2017-Jun-22 10:00N 37°53' E 002°34'713.2
2017-Jun-22 09:30N 37°54' E 002°42'713.1
2017-Jun-22 09:00N 37°56' E 002°50'713.0
2017-Jun-22 08:30N 37°57' E 002°59'613.1
2017-Jun-22 08:01N 37°57' E 003°07'713.1
2017-Jun-22 07:30N 37°58' E 003°15'612.3
2017-Jun-22 07:00N 37°59' E 003°23'510.1
2017-Jun-22 06:30N 37°59' E 003°29'3 5.7
2017-Jun-22 06:00N 37°60' E 003°33'0 0.3
2017-Jun-22 05:30N 37°60' E 003°33'0 0.3
2017-Jun-22 04:55N 37°60' E 003°33'0 0.4
2017-Jun-22 04:04N 37°60' E 003°33'0 0.4
2017-Jun-22 04:00N 37°60' E 003°33'0 0.5
2017-Jun-22 03:30N 37°60' E 003°34'0 0.5
2017-Jun-22 02:59N 37°60' E 003°34'0 0.6
2017-Jun-22 02:30N 37°60' E 003°34'0 0.6
2017-Jun-22 02:00N 37°60' E 003°35'0 0.6
2017-Jun-22 01:30N 37°60' E 003°35'0 0.6
2017-Jun-22 01:00N 37°60' E 003°36'0 0.7
2017-Jun-22 00:30N 37°59' E 003°36'0 0.7
2017-Jun-21 23:59N 37°59' E 003°36'0 0.8
2017-Jun-21 23:31N 37°59' E 003°37'0 0.8
2017-Jun-21 23:00N 37°59' E 003°37'1 0.9
2017-Jun-21 22:21N 37°59' E 003°38'0 0.9
2017-Jun-21 22:00N 37°59' E 003°39'0 0.9
2017-Jun-21 21:30N 37°59' E 003°39'0 0.9
2017-Jun-21 21:00N 37°59' E 003°40'0 0.9
2017-Jun-21 20:30N 37°60' E 003°40'0 0.9
2017-Jun-21 20:00N 37°60' E 003°41'0 0.9
2017-Jun-21 19:30N 37°60' E 003°41'0 0.9
2017-Jun-21 19:00N 38°00' E 003°42'0 0.8
2017-Jun-21 18:30N 38°00' E 003°42'0 0.8
2017-Jun-21 18:00N 38°01' E 003°43'0 0.8
2017-Jun-21 17:30N 38°01' E 003°43'0 0.8
2017-Jun-21 17:00N 38°01' E 003°43'0 0.8
2017-Jun-21 16:30N 38°01' E 003°44'0 0.8
2017-Jun-21 16:00N 38°02' E 003°44'0 0.7
2017-Jun-21 15:30N 38°02' E 003°45'0 0.7
2017-Jun-21 15:00N 38°02' E 003°45'1 0.9
2017-Jun-21 13:45N 38°03' E 003°46'2 7.8
2017-Jun-21 13:29N 38°03' E 003°48'713.3
2017-Jun-21 13:00N 38°04' E 003°57'713.4
2017-Jun-21 12:27N 38°06' E 004°06'2110.0
2017-Jun-21 10:21N 38°10' E 004°32'1 1.6
2017-Jun-21 09:53N 38°09' E 004°33'2 4.2
2017-Jun-21 09:29N 38°10' E 004°35'613.0
2017-Jun-21 09:00N 38°11' E 004°43'713.4
2017-Jun-21 08:28N 38°12' E 004°52'913.4
2017-Jun-21 07:48N 38°13' E 005°03'1713.2
2017-Jun-21 06:32N 38°15' E 005°24'013.5
2017-Jun-21 06:30N 38°15' E 005°25'1713.6
2017-Jun-21 05:17N 38°18' E 005°45'4213.8
2017-Jun-21 02:16N 38°25' E 006°38'5213.3
2017-Jun-20 22:21N 38°34' E 007°43'713.7
2017-Jun-20 21:52N 38°35' E 007°52'3713.6
2017-Jun-20 19:09N 38°42' E 008°38'313.1
2017-Jun-20 18:57N 38°43' E 008°41'613.1
2017-Jun-20 18:30N 38°43' E 008°49'1013.1
2017-Jun-20 17:43N 38°47' E 009°01'313.3
2017-Jun-20 17:30N 38°48' E 009°05'713.3
2017-Jun-20 17:00N 38°51' E 009°12'713.4
2017-Jun-20 16:30N 38°54' E 009°20'713.4
2017-Jun-20 16:00N 38°57' E 009°28'1613.0
2017-Jun-20 14:45N 39°04' E 009°47'7412.9
2017-Jun-20 08:58N 39°36' E 011°13'612.8
2017-Jun-20 08:30N 39°39' E 011°20'612.8
2017-Jun-20 08:00N 39°41' E 011°28'5112.8
2017-Jun-20 04:02N 40°03' E 012°28'612.8
2017-Jun-20 03:35N 40°06' E 012°34'8713.2
2017-Jun-19 20:58N 40°46' E 014°16'  
2017-Jun-17 16:32N 40°33' E 014°04'012.5
2017-Jun-17 16:30N 40°32' E 014°04'612.7
2017-Jun-17 16:00N 40°26' E 014°07'612.8
2017-Jun-17 15:30N 40°21' E 014°11'712.7
2017-Jun-17 14:58N 40°14' E 014°14'1613.0
2017-Jun-17 13:44N 39°60' E 014°23'312.9
2017-Jun-17 13:30N 39°57' E 014°25'7813.1
2017-Jun-17 07:31N 38°46' E 015°07'013.2
2017-Jun-17 07:29N 38°46' E 015°07'713.1
2017-Jun-17 06:59N 38°40' E 015°11'612.7
2017-Jun-17 06:30N 38°35' E 015°15'611.3
2017-Jun-17 06:00N 38°29' E 015°14'612.5
2017-Jun-17 05:30N 38°23' E 015°16'612.6
2017-Jun-17 05:00N 38°17' E 015°17'4 7.9
2017-Jun-17 04:30N 38°13' E 015°16'165 5.6
2017-Jun-15 23:10N 40°41' E 013°45'165 9.9
2017-Jun-15 06:30N 38°13' E 015°16'1 1.4
2017-Jun-15 06:01N 38°13' E 015°17'3 5.9
2017-Jun-15 05:30N 38°16' E 015°17'4 7.6
2017-Jun-15 05:01N 38°20' E 015°15'5 9.1
2017-Jun-15 04:31N 38°24' E 015°12'610.7
2017-Jun-15 04:00N 38°28' E 015°08'510.8
2017-Jun-15 03:30N 38°33' E 015°04'612.5
2017-Jun-15 03:00N 38°37' E 014°59'713.6
2017-Jun-15 02:29N 38°44' E 014°55'613.6
2017-Jun-15 02:01N 38°49' E 014°52'713.6
2017-Jun-15 01:29N 38°56' E 014°47'613.4
2017-Jun-15 01:00N 39°01' E 014°44'713.2
2017-Jun-15 00:31N 39°07' E 014°40'713.1
2017-Jun-15 00:00N 39°14' E 014°37'612.7
2017-Jun-14 23:30N 39°20' E 014°34'712.7
2017-Jun-14 22:58N 39°26' E 014°30'2213.2
2017-Jun-14 21:19N 39°45' E 014°18'1413.5
2017-Jun-14 20:16N 39°58' E 014°10'613.5
2017-Jun-14 19:49N 40°04' E 014°07'2713.6
2017-Jun-14 17:52N 40°28' E 013°53'513.5
2017-Jun-14 17:30N 40°32' E 013°50'713.6
2017-Jun-14 17:01N 40°38' E 013°46'713.5
2017-Jun-14 16:30N 40°45' E 013°43'713.4
2017-Jun-14 16:00N 40°51' E 013°42'713.3
2017-Jun-14 15:30N 40°58' E 013°42'713.5
2017-Jun-14 15:01N 41°05' E 013°41'1010.0
2017-Jun-14 14:00N 41°13' E 013°35'0 0.0
2017-Jun-13 04:55N 41°13' E 013°34'0 0.8
2017-Jun-13 04:26N 41°13' E 013°35'2 4.8
2017-Jun-13 04:00N 41°13' E 013°38'2 3.3
2017-Jun-13 03:30N 41°13' E 013°40'0 0.2
2017-Jun-13 03:00N 41°13' E 013°40'0 0.0
2017-Jun-13 00:38N 41°13' E 013°40'0 0.0
2017-Jun-13 00:14N 41°13' E 013°40'  

Dump ship's entire track history